sensor_id;sensor_type;location;lat;lon;timestamp;pressure;altitude;pressure_sealevel;temperature;humidity
18850;BME280;4989;48.772;9.154;2022-12-07T00:00:06;98071.41;;;8.19;100.00
18850;BME280;4989;48.772;9.154;2022-12-07T00:05:09;98065.25;;;7.32;100.00
18850;BME280;4989;48.772;9.154;2022-12-07T00:10:11;98068.28;;;7.34;100.00
18850;BME280;4989;48.772;9.154;2022-12-07T00:15:13;98061.34;;;8.23;100.00
18850;BME280;4989;48.772;9.154;2022-12-07T00:20:16;98064.44;;;8.56;100.00
18850;BME280;4989;48.772;9.154;2022-12-07T00:25:18;98063.41;;;9.58;100.00
18850;BME280;4989;48.772;9.154;2022-12-07T00:30:21;98070.72;;;9.85;100.00
18850;BME280;4989;48.772;9.154;2022-12-07T00:35:24;98056.09;;;9.79;100.00
18850;BME280;4989;48.772;9.154;2022-12-07T00:40:27;98059.28;;;9.74;100.00
18850;BME280;4989;48.772;9.154;2022-12-07T00:45:29;98056.03;;;9.35;100.00
18850;BME280;4989;48.772;9.154;2022-12-07T00:50:32;98055.09;;;7.89;100.00
18850;BME280;4989;48.772;9.154;2022-12-07T00:55:35;98058.19;;;7.46;100.00
18850;BME280;4989;48.772;9.154;2022-12-07T01:00:39;98064.13;;;6.53;100.00
18850;BME280;4989;48.772;9.154;2022-12-07T01:05:50;98060.56;;;7.37;100.00
18850;BME280;4989;48.772;9.154;2022-12-07T01:11:03;98054.34;;;8.60;100.00
18850;BME280;4989;48.772;9.154;2022-12-07T01:16:07;98061.69;;;7.88;100.00
18850;BME280;4989;48.772;9.154;2022-12-07T01:21:13;98070.03;;;8.04;100.00
18850;BME280;4989;48.772;9.154;2022-12-07T01:26:19;98064.19;;;7.68;100.00
18850;BME280;4989;48.772;9.154;2022-12-07T01:31:23;98069.78;;;8.94;100.00
18850;BME280;4989;48.772;9.154;2022-12-07T01:36:29;98077.31;;;9.10;100.00
18850;BME280;4989;48.772;9.154;2022-12-07T01:41:38;98081.31;;;8.71;100.00
18850;BME280;4989;48.772;9.154;2022-12-07T01:46:45;98075.31;;;8.18;100.00
18850;BME280;4989;48.772;9.154;2022-12-07T01:51:49;98087.22;;;6.64;100.00
18850;BME280;4989;48.772;9.154;2022-12-07T01:56:55;98077.38;;;6.08;100.00
18850;BME280;4989;48.772;9.154;2022-12-07T02:01:59;98081.25;;;5.42;100.00
18850;BME280;4989;48.772;9.154;2022-12-07T02:07:05;98079.31;;;5.61;100.00
18850;BME280;4989;48.772;9.154;2022-12-07T02:12:07;98072.00;;;5.65;100.00
18850;BME280;4989;48.772;9.154;2022-12-07T02:17:15;98078.09;;;4.97;100.00
18850;BME280;4989;48.772;9.154;2022-12-07T02:33:31;98067.56;;;4.53;100.00
18850;BME280;4989;48.772;9.154;2022-12-07T02:43:52;98054.88;;;4.46;100.00
18850;BME280;4989;48.772;9.154;2022-12-07T02:48:56;98061.00;;;4.43;100.00
18850;BME280;4989;48.772;9.154;2022-12-07T02:54:01;98052.56;;;4.48;100.00
18850;BME280;4989;48.772;9.154;2022-12-07T03:09:50;98036.78;;;4.36;100.00
18850;BME280;4989;48.772;9.154;2022-12-07T03:15:07;98037.91;;;4.39;100.00
18850;BME280;4989;48.772;9.154;2022-12-07T03:20:14;98039.84;;;4.42;100.00
18850;BME280;4989;48.772;9.154;2022-12-07T03:25:20;98035.69;;;4.58;100.00
18850;BME280;4989;48.772;9.154;2022-12-07T03:30:37;98033.84;;;4.98;100.00
18850;BME280;4989;48.772;9.154;2022-12-07T03:35:55;98036.47;;;4.63;100.00
18850;BME280;4989;48.772;9.154;2022-12-07T03:41:08;98030.69;;;4.61;100.00
18850;BME280;4989;48.772;9.154;2022-12-07T03:57:20;98025.00;;;4.87;100.00
18850;BME280;4989;48.772;9.154;2022-12-07T04:02:26;98023.09;;;5.05;100.00
18850;BME280;4989;48.772;9.154;2022-12-07T04:07:29;98008.84;;;5.66;100.00
18850;BME280;4989;48.772;9.154;2022-12-07T04:12:32;98008.50;;;5.21;100.00
18850;BME280;4989;48.772;9.154;2022-12-07T04:17:34;98007.31;;;5.54;100.00
18850;BME280;4989;48.772;9.154;2022-12-07T04:22:37;98005.59;;;6.28;100.00
18850;BME280;4989;48.772;9.154;2022-12-07T04:27:39;98009.69;;;6.61;100.00
18850;BME280;4989;48.772;9.154;2022-12-07T04:32:42;97991.91;;;5.62;100.00
18850;BME280;4989;48.772;9.154;2022-12-07T04:37:44;97973.47;;;4.99;100.00
18850;BME280;4989;48.772;9.154;2022-12-07T04:42:49;97971.13;;;4.80;100.00
18850;BME280;4989;48.772;9.154;2022-12-07T04:47:52;97979.97;;;4.77;100.00
18850;BME280;4989;48.772;9.154;2022-12-07T04:52:54;97969.59;;;4.86;100.00
18850;BME280;4989;48.772;9.154;2022-12-07T04:57:57;97958.06;;;4.89;100.00
18850;BME280;4989;48.772;9.154;2022-12-07T05:02:59;97958.81;;;4.57;98.63
18850;BME280;4989;48.772;9.154;2022-12-07T05:08:02;97959.59;;;4.72;96.48
18850;BME280;4989;48.772;9.154;2022-12-07T05:13:04;97969.56;;;5.50;100.00
18850;BME280;4989;48.772;9.154;2022-12-07T05:18:07;97963.25;;;6.22;100.00
18850;BME280;4989;48.772;9.154;2022-12-07T05:23:09;97980.53;;;6.38;100.00
18850;BME280;4989;48.772;9.154;2022-12-07T05:28:12;97975.41;;;6.55;100.00
18850;BME280;4989;48.772;9.154;2022-12-07T05:33:15;97988.91;;;6.55;100.00
18850;BME280;4989;48.772;9.154;2022-12-07T05:38:17;97997.84;;;6.45;100.00
18850;BME280;4989;48.772;9.154;2022-12-07T05:43:19;98005.50;;;6.53;100.00
18850;BME280;4989;48.772;9.154;2022-12-07T05:48:22;98014.28;;;6.68;100.00
18850;BME280;4989;48.772;9.154;2022-12-07T05:53:25;98012.81;;;6.53;100.00
18850;BME280;4989;48.772;9.154;2022-12-07T05:58:27;98015.75;;;5.74;100.00
18850;BME280;4989;48.772;9.154;2022-12-07T06:03:48;98009.44;;;6.34;100.00
18850;BME280;4989;48.772;9.154;2022-12-07T06:08:51;98012.53;;;6.29;100.00
18850;BME280;4989;48.772;9.154;2022-12-07T06:13:53;98009.38;;;6.49;100.00
18850;BME280;4989;48.772;9.154;2022-12-07T06:18:56;98009.53;;;6.09;100.00
18850;BME280;4989;48.772;9.154;2022-12-07T06:23:58;98014.44;;;6.39;100.00
18850;BME280;4989;48.772;9.154;2022-12-07T06:29:01;98020.88;;;6.67;100.00
18850;BME280;4989;48.772;9.154;2022-12-07T06:34:06;98016.91;;;5.73;100.00
18850;BME280;4989;48.772;9.154;2022-12-07T06:39:09;98021.94;;;5.57;100.00
18850;BME280;4989;48.772;9.154;2022-12-07T06:44:12;98020.41;;;5.38;100.00
18850;BME280;4989;48.772;9.154;2022-12-07T06:49:15;98016.56;;;5.03;100.00
18850;BME280;4989;48.772;9.154;2022-12-07T06:54:17;98014.63;;;4.96;100.00
18850;BME280;4989;48.772;9.154;2022-12-07T06:59:20;98014.25;;;5.59;100.00
18850;BME280;4989;48.772;9.154;2022-12-07T07:04:22;98024.97;;;6.02;98.96
18850;BME280;4989;48.772;9.154;2022-12-07T07:09:25;98031.94;;;5.60;95.05
18850;BME280;4989;48.772;9.154;2022-12-07T07:14:28;98026.56;;;5.38;98.30
18850;BME280;4989;48.772;9.154;2022-12-07T07:19:31;98036.56;;;5.20;98.61
18850;BME280;4989;48.772;9.154;2022-12-07T07:24:33;98031.94;;;4.95;100.00
18850;BME280;4989;48.772;9.154;2022-12-07T07:29:36;98039.66;;;5.15;98.78
18850;BME280;4989;48.772;9.154;2022-12-07T07:34:39;98036.97;;;5.22;95.43
18850;BME280;4989;48.772;9.154;2022-12-07T07:39:41;98042.72;;;5.38;96.51
18850;BME280;4989;48.772;9.154;2022-12-07T07:44:44;98047.72;;;5.79;92.65
18850;BME280;4989;48.772;9.154;2022-12-07T07:49:46;98051.59;;;5.28;94.49
18850;BME280;4989;48.772;9.154;2022-12-07T07:54:49;98056.47;;;4.69;98.67
18850;BME280;4989;48.772;9.154;2022-12-07T07:59:52;98058.81;;;4.81;100.00
18850;BME280;4989;48.772;9.154;2022-12-07T08:04:54;98053.50;;;5.20;95.06
18850;BME280;4989;48.772;9.154;2022-12-07T08:09:57;98041.59;;;5.39;100.00
18850;BME280;4989;48.772;9.154;2022-12-07T08:15:00;98045.78;;;5.90;100.00
18850;BME280;4989;48.772;9.154;2022-12-07T08:20:02;98056.44;;;6.48;100.00
18850;BME280;4989;48.772;9.154;2022-12-07T08:25:05;98053.22;;;6.78;100.00
18850;BME280;4989;48.772;9.154;2022-12-07T08:30:08;98056.38;;;6.62;96.31
18850;BME280;4989;48.772;9.154;2022-12-07T08:35:11;98058.03;;;6.41;88.09
18850;BME280;4989;48.772;9.154;2022-12-07T08:40:14;98064.19;;;6.38;96.16
18850;BME280;4989;48.772;9.154;2022-12-07T08:45:19;98066.22;;;6.97;100.00
18850;BME280;4989;48.772;9.154;2022-12-07T08:50:28;98066.91;;;6.31;85.79
18850;BME280;4989;48.772;9.154;2022-12-07T08:55:32;98060.41;;;6.07;87.42
18850;BME280;4989;48.772;9.154;2022-12-07T09:00:35;98064.97;;;6.28;91.49
18850;BME280;4989;48.772;9.154;2022-12-07T09:05:38;98060.97;;;6.72;92.94
18850;BME280;4989;48.772;9.154;2022-12-07T09:10:40;98061.06;;;6.43;85.17
18850;BME280;4989;48.772;9.154;2022-12-07T09:15:43;98059.03;;;6.65;89.49
18850;BME280;4989;48.772;9.154;2022-12-07T09:20:45;98064.19;;;6.38;84.67
18850;BME280;4989;48.772;9.154;2022-12-07T09:25:48;98057.72;;;6.99;89.11
18850;BME280;4989;48.772;9.154;2022-12-07T09:30:50;98062.06;;;7.45;84.93
18850;BME280;4989;48.772;9.154;2022-12-07T09:36:13;98048.47;;;7.00;83.60
18850;BME280;4989;48.772;9.154;2022-12-07T09:41:15;98053.34;;;7.19;89.26
18850;BME280;4989;48.772;9.154;2022-12-07T09:46:19;98056.03;;;7.71;98.07
18850;BME280;4989;48.772;9.154;2022-12-07T09:51:23;98048.38;;;8.04;87.47
18850;BME280;4989;48.772;9.154;2022-12-07T09:56:29;98047.75;;;7.48;83.21
18850;BME280;4989;48.772;9.154;2022-12-07T10:01:37;98036.06;;;7.06;84.31
18850;BME280;4989;48.772;9.154;2022-12-07T10:06:42;98035.25;;;7.13;89.77
18850;BME280;4989;48.772;9.154;2022-12-07T10:17:38;98018.75;;;7.48;86.72
18850;BME280;4989;48.772;9.154;2022-12-07T10:38:45;98012.44;;;7.66;87.14
18850;BME280;4989;48.772;9.154;2022-12-07T10:43:50;98014.56;;;7.85;91.46
18850;BME280;4989;48.772;9.154;2022-12-07T11:10:22;97984.88;;;6.84;89.70
18850;BME280;4989;48.772;9.154;2022-12-07T11:21:22;97976.69;;;7.44;92.16
18850;BME280;4989;48.772;9.154;2022-12-07T11:37:32;97967.13;;;8.11;93.92
18850;BME280;4989;48.772;9.154;2022-12-07T11:48:02;97951.88;;;7.90;88.51
18850;BME280;4989;48.772;9.154;2022-12-07T11:58:22;97939.75;;;6.81;93.77
18850;BME280;4989;48.772;9.154;2022-12-07T12:03:35;97935.47;;;7.32;100.00
18850;BME280;4989;48.772;9.154;2022-12-07T12:08:50;97930.28;;;7.87;100.00
18850;BME280;4989;48.772;9.154;2022-12-07T12:25:30;97929.50;;;8.51;100.00
18850;BME280;4989;48.772;9.154;2022-12-07T12:30:39;97927.13;;;8.53;100.00
18850;BME280;4989;48.772;9.154;2022-12-07T12:35:42;97930.38;;;8.41;100.00
18850;BME280;4989;48.772;9.154;2022-12-07T12:40:45;97914.38;;;8.54;100.00
18850;BME280;4989;48.772;9.154;2022-12-07T13:02:39;97907.38;;;8.80;100.00
18850;BME280;4989;48.772;9.154;2022-12-07T13:23:33;97878.41;;;9.00;100.00
18850;BME280;4989;48.772;9.154;2022-12-07T13:28:47;97887.50;;;8.90;96.83
18850;BME280;4989;48.772;9.154;2022-12-07T13:33:50;97881.25;;;8.93;100.00
18850;BME280;4989;48.772;9.154;2022-12-07T13:39:00;97882.97;;;8.56;98.56
18850;BME280;4989;48.772;9.154;2022-12-07T13:44:14;97885.22;;;8.61;96.05
18850;BME280;4989;48.772;9.154;2022-12-07T13:49:28;97888.25;;;7.78;88.35
18850;BME280;4989;48.772;9.154;2022-12-07T13:54:31;97885.97;;;7.39;92.47
18850;BME280;4989;48.772;9.154;2022-12-07T13:59:34;97881.22;;;7.85;100.00
18850;BME280;4989;48.772;9.154;2022-12-07T14:04:37;97883.50;;;8.17;100.00
18850;BME280;4989;48.772;9.154;2022-12-07T14:09:40;97878.84;;;8.48;100.00
18850;BME280;4989;48.772;9.154;2022-12-07T14:14:47;97876.09;;;8.52;100.00
18850;BME280;4989;48.772;9.154;2022-12-07T14:19:55;97867.44;;;8.60;100.00
18850;BME280;4989;48.772;9.154;2022-12-07T14:30:05;97867.50;;;8.57;100.00
18850;BME280;4989;48.772;9.154;2022-12-07T14:35:09;97867.13;;;8.55;100.00
18850;BME280;4989;48.772;9.154;2022-12-07T14:40:18;97866.00;;;8.52;99.18
18850;BME280;4989;48.772;9.154;2022-12-07T14:45:22;97873.69;;;8.57;100.00
18850;BME280;4989;48.772;9.154;2022-12-07T14:50:25;97874.56;;;8.51;100.00
18850;BME280;4989;48.772;9.154;2022-12-07T14:55:31;97877.78;;;7.80;93.65
18850;BME280;4989;48.772;9.154;2022-12-07T15:00:34;97882.22;;;7.29;97.27
18850;BME280;4989;48.772;9.154;2022-12-07T15:05:37;97881.22;;;7.85;100.00
18850;BME280;4989;48.772;9.154;2022-12-07T15:10:40;97877.25;;;8.23;100.00
18850;BME280;4989;48.772;9.154;2022-12-07T15:15:42;97878.63;;;8.35;100.00
18850;BME280;4989;48.772;9.154;2022-12-07T15:20:46;97880.25;;;8.29;100.00
18850;BME280;4989;48.772;9.154;2022-12-07T15:25:49;97877.94;;;8.27;100.00
18850;BME280;4989;48.772;9.154;2022-12-07T15:30:51;97885.09;;;8.14;100.00
18850;BME280;4989;48.772;9.154;2022-12-07T15:35:54;97876.50;;;8.19;100.00
18850;BME280;4989;48.772;9.154;2022-12-07T15:40:57;97883.34;;;8.27;100.00
18850;BME280;4989;48.772;9.154;2022-12-07T15:46:00;97875.50;;;8.37;100.00
18850;BME280;4989;48.772;9.154;2022-12-07T15:51:04;97873.19;;;8.39;100.00
18850;BME280;4989;48.772;9.154;2022-12-07T15:56:07;97877.31;;;8.16;100.00
18850;BME280;4989;48.772;9.154;2022-12-07T16:01:11;97871.00;;;7.65;100.00
18850;BME280;4989;48.772;9.154;2022-12-07T16:06:17;97870.38;;;6.71;96.94
18850;BME280;4989;48.772;9.154;2022-12-07T16:11:21;97865.28;;;6.28;100.00
18850;BME280;4989;48.772;9.154;2022-12-07T16:16:23;97852.94;;;6.31;100.00
18850;BME280;4989;48.772;9.154;2022-12-07T16:21:26;97858.84;;;6.11;100.00
18850;BME280;4989;48.772;9.154;2022-12-07T16:26:29;97846.22;;;5.83;100.00
18850;BME280;4989;48.772;9.154;2022-12-07T16:31:32;97847.84;;;5.70;100.00
18850;BME280;4989;48.772;9.154;2022-12-07T16:36:35;97845.50;;;5.79;100.00
18850;BME280;4989;48.772;9.154;2022-12-07T16:41:57;97839.38;;;5.68;100.00
18850;BME280;4989;48.772;9.154;2022-12-07T16:47:00;97837.16;;;5.41;100.00
18850;BME280;4989;48.772;9.154;2022-12-07T16:52:03;97823.25;;;5.54;100.00
18850;BME280;4989;48.772;9.154;2022-12-07T16:57:22;97809.38;;;5.59;100.00
18850;BME280;4989;48.772;9.154;2022-12-07T17:02:25;97810.25;;;5.31;100.00
18850;BME280;4989;48.772;9.154;2022-12-07T17:07:28;97817.22;;;5.17;100.00
18850;BME280;4989;48.772;9.154;2022-12-07T17:12:30;97809.56;;;5.01;100.00
18850;BME280;4989;48.772;9.154;2022-12-07T17:17:33;97804.19;;;4.94;100.00
18850;BME280;4989;48.772;9.154;2022-12-07T17:22:35;97790.34;;;4.99;100.00
18850;BME280;4989;48.772;9.154;2022-12-07T17:27:38;97793.41;;;5.01;100.00
18850;BME280;4989;48.772;9.154;2022-12-07T17:32:41;97787.66;;;4.99;100.00
18850;BME280;4989;48.772;9.154;2022-12-07T17:37:44;97787.63;;;5.07;100.00
18850;BME280;4989;48.772;9.154;2022-12-07T17:42:52;97787.16;;;5.33;100.00
18850;BME280;4989;48.772;9.154;2022-12-07T17:47:55;97788.66;;;5.41;100.00
18850;BME280;4989;48.772;9.154;2022-12-07T17:52:58;97791.56;;;5.79;100.00
18850;BME280;4989;48.772;9.154;2022-12-07T17:58:12;97792.28;;;5.83;100.00
18850;BME280;4989;48.772;9.154;2022-12-07T18:03:15;97781.84;;;6.00;100.00
18850;BME280;4989;48.772;9.154;2022-12-07T18:08:17;97784.63;;;5.78;100.00
18850;BME280;4989;48.772;9.154;2022-12-07T18:13:20;97777.03;;;5.59;100.00
18850;BME280;4989;48.772;9.154;2022-12-07T18:18:38;97781.16;;;5.78;100.00
18850;BME280;4989;48.772;9.154;2022-12-07T18:23:42;97783.97;;;5.56;100.00
18850;BME280;4989;48.772;9.154;2022-12-07T18:28:45;97781.06;;;5.92;100.00
18850;BME280;4989;48.772;9.154;2022-12-07T18:33:48;97788.75;;;6.53;100.00
18850;BME280;4989;48.772;9.154;2022-12-07T18:38:51;97783.16;;;6.74;100.00
18850;BME280;4989;48.772;9.154;2022-12-07T18:43:53;97790.41;;;6.84;100.00
18850;BME280;4989;48.772;9.154;2022-12-07T18:48:56;97781.28;;;6.23;98.08
18850;BME280;4989;48.772;9.154;2022-12-07T18:54:00;97786.53;;;6.40;100.00
18850;BME280;4989;48.772;9.154;2022-12-07T18:59:04;97779.72;;;6.25;98.22
18850;BME280;4989;48.772;9.154;2022-12-07T19:04:25;97781.06;;;6.03;100.00
18850;BME280;4989;48.772;9.154;2022-12-07T19:09:27;97790.06;;;5.71;100.00
18850;BME280;4989;48.772;9.154;2022-12-07T19:14:35;97779.34;;;5.57;100.00
18850;BME280;4989;48.772;9.154;2022-12-07T19:19:41;97776.28;;;5.55;100.00
18850;BME280;4989;48.772;9.154;2022-12-07T19:24:46;97781.22;;;5.67;100.00
18850;BME280;4989;48.772;9.154;2022-12-07T19:29:50;97775.44;;;5.68;100.00
18850;BME280;4989;48.772;9.154;2022-12-07T19:34:52;97773.06;;;5.81;100.00
18850;BME280;4989;48.772;9.154;2022-12-07T19:39:55;97775.47;;;5.61;100.00
18850;BME280;4989;48.772;9.154;2022-12-07T19:44:58;97775.59;;;5.36;100.00
18850;BME280;4989;48.772;9.154;2022-12-07T19:50:01;97774.19;;;4.96;100.00
18850;BME280;4989;48.772;9.154;2022-12-07T19:55:03;97775.69;;;5.15;100.00
18850;BME280;4989;48.772;9.154;2022-12-07T20:00:07;97764.59;;;5.79;100.00
18850;BME280;4989;48.772;9.154;2022-12-07T20:05:09;97756.53;;;6.31;100.00
18850;BME280;4989;48.772;9.154;2022-12-07T20:10:12;97758.38;;;6.45;99.52
18850;BME280;4989;48.772;9.154;2022-12-07T20:15:15;97746.78;;;6.00;98.46
18850;BME280;4989;48.772;9.154;2022-12-07T20:20:17;97754.44;;;6.05;99.54
18850;BME280;4989;48.772;9.154;2022-12-07T20:25:20;97747.22;;;6.39;100.00
18850;BME280;4989;48.772;9.154;2022-12-07T20:30:22;97747.28;;;6.32;100.00
18850;BME280;4989;48.772;9.154;2022-12-07T20:35:25;97736.28;;;6.57;100.00
18850;BME280;4989;48.772;9.154;2022-12-07T20:40:28;97730.28;;;6.77;99.52
18850;BME280;4989;48.772;9.154;2022-12-07T20:45:30;97734.97;;;6.73;96.44
18850;BME280;4989;48.772;9.154;2022-12-07T20:50:33;97728.13;;;6.16;96.69
18850;BME280;4989;48.772;9.154;2022-12-07T20:55:43;97719.25;;;5.63;98.53
18850;BME280;4989;48.772;9.154;2022-12-07T21:00:45;97711.41;;;5.83;98.77
18850;BME280;4989;48.772;9.154;2022-12-07T21:05:48;97716.84;;;5.76;98.33
18850;BME280;4989;48.772;9.154;2022-12-07T21:10:52;97706.66;;;6.02;98.00
18850;BME280;4989;48.772;9.154;2022-12-07T21:15:54;97715.75;;;6.22;100.00
18850;BME280;4989;48.772;9.154;2022-12-07T21:21:00;97713.16;;;6.53;100.00
18850;BME280;4989;48.772;9.154;2022-12-07T21:26:11;97693.31;;;6.70;100.00
18850;BME280;4989;48.772;9.154;2022-12-07T21:31:14;97698.19;;;6.82;100.00
18850;BME280;4989;48.772;9.154;2022-12-07T21:36:22;97691.09;;;6.96;100.00
18850;BME280;4989;48.772;9.154;2022-12-07T21:41:29;97697.41;;;6.85;100.00
18850;BME280;4989;48.772;9.154;2022-12-07T21:46:32;97688.81;;;6.94;100.00
18850;BME280;4989;48.772;9.154;2022-12-07T21:51:36;97683.69;;;6.69;100.00
18850;BME280;4989;48.772;9.154;2022-12-07T21:56:40;97686.81;;;5.74;96.64
18850;BME280;4989;48.772;9.154;2022-12-07T22:01:43;97679.97;;;5.66;100.00
18850;BME280;4989;48.772;9.154;2022-12-07T22:06:50;97687.25;;;6.21;100.00
18850;BME280;4989;48.772;9.154;2022-12-07T22:11:53;97684.56;;;6.59;100.00
18850;BME280;4989;48.772;9.154;2022-12-07T22:16:55;97688.63;;;6.78;100.00
18850;BME280;4989;48.772;9.154;2022-12-07T22:21:59;97690.97;;;6.34;96.12
18850;BME280;4989;48.772;9.154;2022-12-07T22:27:01;97685.13;;;5.98;100.00
18850;BME280;4989;48.772;9.154;2022-12-07T22:32:04;97677.59;;;6.20;100.00
18850;BME280;4989;48.772;9.154;2022-12-07T22:37:28;97673.25;;;6.33;100.00
18850;BME280;4989;48.772;9.154;2022-12-07T22:42:31;97671.97;;;6.04;100.00
18850;BME280;4989;48.772;9.154;2022-12-07T22:47:33;97672.50;;;6.33;100.00
18850;BME280;4989;48.772;9.154;2022-12-07T22:52:36;97668.09;;;6.05;100.00
18850;BME280;4989;48.772;9.154;2022-12-07T22:57:38;97668.34;;;5.72;100.00
18850;BME280;4989;48.772;9.154;2022-12-07T23:02:41;97672.72;;;6.08;100.00
18850;BME280;4989;48.772;9.154;2022-12-07T23:07:43;97656.94;;;6.48;100.00
18850;BME280;4989;48.772;9.154;2022-12-07T23:12:46;97647.47;;;5.80;100.00
18850;BME280;4989;48.772;9.154;2022-12-07T23:18:10;97653.75;;;5.66;100.00
18850;BME280;4989;48.772;9.154;2022-12-07T23:23:15;97654.19;;;6.10;100.00
18850;BME280;4989;48.772;9.154;2022-12-07T23:28:17;97656.03;;;6.20;100.00
18850;BME280;4989;48.772;9.154;2022-12-07T23:33:20;97638.72;;;6.17;100.00
18850;BME280;4989;48.772;9.154;2022-12-07T23:38:25;97632.38;;;6.69;100.00
18850;BME280;4989;48.772;9.154;2022-12-07T23:43:28;97640.22;;;6.60;99.98
18850;BME280;4989;48.772;9.154;2022-12-07T23:48:30;97625.78;;;6.39;100.00
18850;BME280;4989;48.772;9.154;2022-12-07T23:53:37;97617.78;;;6.29;100.00
18850;BME280;4989;48.772;9.154;2022-12-07T23:58:40;97613.81;;;6.40;100.00
